createdAt,value
2023-03-10T00:00:40.411Z,51.90
2023-03-10T00:03:07.882Z,51.83
2023-03-10T00:05:35.151Z,52.73
2023-03-10T00:08:02.039Z,53.07
2023-03-10T00:10:29.182Z,52.50
2023-03-10T00:12:56.369Z,53.33
2023-03-10T00:15:23.876Z,52.50
2023-03-10T00:17:52.154Z,53.80
2023-03-10T00:20:19.134Z,52.57
2023-03-10T00:22:46.136Z,53.47
2023-03-10T00:25:13.059Z,53.40
2023-03-10T00:27:39.946Z,53.27
2023-03-10T00:30:08.157Z,54.53
2023-03-10T00:32:36.174Z,54.37
2023-03-10T00:35:06.041Z,53.80
2023-03-10T00:37:37.074Z,58.10
2023-03-10T00:40:07.881Z,54.00
2023-03-10T00:42:35.690Z,53.60
2023-03-10T00:45:02.733Z,53.53
2023-03-10T00:47:29.646Z,55.77
2023-03-10T00:49:56.540Z,65.97
2023-03-10T00:52:23.404Z,56.73
2023-03-10T00:54:51.426Z,54.60
2023-03-10T00:57:18.487Z,54.23
2023-03-10T00:59:50.553Z,57.07
2023-03-10T01:02:20.044Z,55.07
2023-03-10T01:04:48.468Z,53.27
2023-03-10T01:07:15.839Z,53.30
2023-03-10T01:09:43.402Z,75.83
2023-03-10T01:12:10.741Z,51.90
2023-03-10T01:14:39.497Z,54.43
2023-03-10T01:17:06.453Z,52.57
2023-03-10T01:19:34.037Z,51.90
2023-03-10T01:22:02.094Z,53.87
2023-03-10T01:24:29.494Z,51.90
2023-03-10T01:26:56.784Z,55.43
2023-03-10T01:29:24.043Z,55.30
2023-03-10T01:31:51.296Z,52.93
2023-03-10T01:34:18.578Z,51.57
2023-03-10T01:36:45.970Z,55.77
2023-03-10T01:39:13.967Z,55.00
2023-03-10T01:41:41.785Z,53.73
2023-03-10T01:44:19.958Z,52.90
2023-03-10T01:46:53.359Z,54.13
2023-03-10T01:49:41.428Z,57.93
2023-03-10T01:52:10.410Z,52.80
2023-03-10T01:54:52.806Z,53.67
2023-03-10T01:57:25.409Z,57.67
2023-03-10T01:59:53.255Z,57.80
2023-03-10T02:02:20.993Z,55.50
2023-03-10T02:04:50.995Z,54.47
2023-03-10T02:07:29.095Z,52.57
2023-03-10T02:09:56.822Z,52.77
2023-03-10T02:12:24.390Z,53.27
2023-03-10T02:14:52.805Z,54.33
2023-03-10T02:17:23.569Z,53.03
2023-03-10T02:20:43.086Z,53.83
2023-03-10T02:23:31.086Z,54.27
2023-03-10T02:26:12.615Z,54.63
2023-03-10T02:28:40.612Z,55.40
2023-03-10T02:31:09.019Z,52.70
2023-03-10T02:33:37.915Z,53.83
2023-03-10T02:36:21.331Z,54.30
2023-03-10T02:38:49.170Z,54.07
2023-03-10T02:41:35.837Z,53.47
2023-03-10T02:44:12.271Z,53.13
2023-03-10T02:46:39.902Z,52.37
2023-03-10T02:49:10.700Z,54.43
2023-03-10T02:51:45.478Z,54.50
2023-03-10T02:54:18.194Z,53.80
2023-03-10T02:56:45.612Z,53.90
2023-03-10T02:59:14.977Z,53.67
2023-03-10T03:01:46.963Z,55.17
2023-03-10T03:04:14.755Z,54.17
2023-03-10T03:06:42.833Z,53.27
2023-03-10T03:09:10.391Z,52.97
2023-03-10T03:11:37.685Z,55.00
2023-03-10T03:14:07.944Z,53.50
2023-03-10T03:16:35.685Z,54.10
2023-03-10T03:19:07.023Z,53.87
2023-03-10T03:21:34.356Z,54.13
2023-03-10T03:24:01.605Z,52.33
2023-03-10T03:26:28.927Z,52.30
2023-03-10T03:29:05.726Z,54.20
2023-03-10T03:31:36.018Z,54.00
2023-03-10T03:34:09.450Z,53.73
2023-03-10T03:36:37.994Z,54.40
2023-03-10T03:39:07.302Z,53.00
2023-03-10T03:41:36.182Z,54.03
2023-03-10T03:44:04.368Z,53.10
2023-03-10T03:46:34.159Z,52.80
2023-03-10T03:49:01.693Z,52.07
2023-03-10T03:51:30.689Z,53.53
2023-03-10T03:53:59.156Z,53.77
2023-03-10T03:56:26.520Z,52.77
2023-03-10T03:58:53.918Z,54.00
2023-03-10T04:01:21.377Z,52.27
2023-03-10T04:03:53.582Z,53.50
2023-03-10T04:06:21.709Z,53.50
2023-03-10T04:08:51.870Z,53.23
2023-03-10T04:11:20.388Z,53.40
2023-03-10T04:13:49.616Z,52.80
2023-03-10T04:16:17.488Z,53.53
2023-03-10T04:18:45.548Z,54.50
2023-03-10T04:21:15.142Z,54.93
2023-03-10T04:23:43.768Z,54.00
2023-03-10T04:26:14.177Z,53.33
2023-03-10T04:28:41.970Z,54.80
2023-03-10T04:31:16.057Z,54.27
2023-03-10T04:33:45.144Z,55.60
2023-03-10T04:36:14.035Z,54.23
2023-03-10T04:38:42.849Z,54.30
2023-03-10T04:41:10.390Z,54.17
2023-03-10T04:43:43.254Z,54.07
2023-03-10T04:46:12.169Z,55.40
2023-03-10T04:48:39.951Z,55.77
2023-03-10T04:51:10.487Z,55.43
2023-03-10T04:53:43.166Z,56.27
2023-03-10T04:56:11.748Z,56.80
2023-03-10T04:58:40.630Z,56.20
2023-03-10T05:01:11.659Z,56.53
2023-03-10T05:03:43.465Z,55.37
2023-03-10T05:06:22.023Z,57.00
2023-03-10T05:09:12.187Z,54.97
2023-03-10T05:11:39.780Z,55.50
2023-03-10T05:14:07.098Z,55.83
2023-03-10T05:16:34.412Z,54.83
2023-03-10T05:19:02.256Z,55.03
2023-03-10T05:21:31.425Z,54.33
2023-03-10T05:23:59.680Z,54.77
2023-03-10T05:26:27.282Z,56.63
2023-03-10T05:28:55.045Z,58.20
2023-03-10T05:31:30.853Z,56.40
2023-03-10T05:34:06.546Z,57.37
2023-03-10T05:36:33.576Z,56.43
2023-03-10T05:39:03.037Z,55.40
2023-03-10T05:41:30.484Z,55.53
2023-03-10T05:43:59.299Z,56.43
2023-03-10T05:46:27.086Z,56.17
2023-03-10T05:48:58.046Z,55.20
2023-03-10T05:51:26.115Z,55.17
2023-03-10T05:53:53.720Z,56.10
2023-03-10T05:56:26.003Z,54.77
2023-03-10T05:58:57.451Z,55.63
2023-03-10T06:01:30.251Z,55.80
2023-03-10T06:03:57.755Z,55.60
2023-03-10T06:06:25.295Z,55.77
2023-03-10T06:08:52.665Z,56.20
2023-03-10T06:11:19.968Z,56.17
2023-03-10T06:13:47.406Z,56.47
2023-03-10T06:16:14.995Z,57.30
2023-03-10T06:18:42.360Z,56.63
2023-03-10T06:21:13.790Z,58.03
2023-03-10T06:23:41.325Z,58.13
2023-03-10T06:26:13.077Z,58.00
2023-03-10T06:28:42.357Z,60.07
2023-03-10T06:31:16.176Z,59.63
2023-03-10T06:33:44.629Z,60.13
2023-03-10T06:36:13.167Z,59.47
2023-03-10T06:38:40.909Z,60.37
2023-03-10T06:41:08.664Z,59.33
2023-03-10T06:43:36.450Z,59.50
2023-03-10T06:46:06.700Z,58.40
2023-03-10T06:48:34.739Z,60.50
2023-03-10T06:51:03.264Z,59.63
2023-03-10T06:53:30.509Z,62.77
2023-03-10T06:56:13.765Z,60.80
2023-03-10T06:58:41.897Z,60.90
2023-03-10T07:01:20.536Z,62.13
2023-03-10T07:03:47.528Z,60.37
2023-03-10T07:06:14.821Z,59.20
2023-03-10T07:08:42.098Z,60.03
2023-03-10T07:11:09.930Z,60.60
2023-03-10T07:13:38.584Z,61.10
2023-03-10T07:16:06.466Z,60.40
2023-03-10T07:18:33.966Z,61.10
2023-03-10T07:21:01.522Z,61.37
2023-03-10T07:23:29.008Z,62.47
2023-03-10T07:25:57.338Z,60.80
2023-03-10T07:28:25.744Z,61.10
2023-03-10T07:30:53.700Z,63.23
2023-03-10T07:33:21.385Z,61.13
2023-03-10T07:35:48.464Z,60.23
2023-03-10T07:38:15.824Z,64.37
2023-03-10T07:40:43.100Z,62.90
2023-03-10T07:43:10.492Z,61.83
2023-03-10T07:45:38.250Z,60.60
2023-03-10T07:48:05.669Z,60.87
2023-03-10T07:50:32.942Z,62.67
2023-03-10T07:53:00.376Z,63.30
2023-03-10T07:55:27.808Z,62.07
2023-03-10T07:57:56.772Z,62.67
2023-03-10T08:00:24.096Z,62.97
2023-03-10T08:02:51.406Z,63.23
2023-03-10T08:05:18.904Z,62.20
2023-03-10T08:07:47.334Z,63.00
2023-03-10T08:10:14.858Z,60.60
2023-03-10T08:12:42.217Z,63.23
2023-03-10T08:15:11.090Z,60.43
2023-03-10T08:17:38.344Z,62.27
2023-03-10T08:20:06.800Z,59.97
2023-03-10T08:22:34.479Z,62.37
2023-03-10T08:25:02.142Z,60.60
2023-03-10T08:27:30.152Z,60.23
2023-03-10T08:29:57.528Z,64.17
2023-03-10T08:32:24.983Z,64.63
2023-03-10T08:34:52.346Z,62.30
2023-03-10T08:37:19.620Z,60.60
2023-03-10T08:39:47.325Z,60.57
2023-03-10T08:42:14.717Z,61.33
2023-03-10T08:44:42.399Z,60.17
2023-03-10T08:47:09.800Z,60.63
2023-03-10T08:49:37.369Z,62.43
2023-03-10T08:52:05.035Z,61.63
2023-03-10T08:54:32.774Z,61.10
2023-03-10T08:57:00.922Z,63.33
2023-03-10T08:59:28.333Z,62.70
2023-03-10T09:01:55.742Z,61.03
2023-03-10T09:04:22.874Z,61.53
2023-03-10T09:06:50.230Z,61.47
2023-03-10T09:09:17.534Z,61.87
2023-03-10T09:11:44.927Z,61.77
2023-03-10T09:14:14.531Z,61.90
2023-03-10T09:16:43.190Z,62.00
2023-03-10T09:19:10.552Z,61.97
2023-03-10T09:21:37.936Z,61.17
2023-03-10T09:24:05.520Z,62.70
2023-03-10T09:26:34.312Z,62.30
2023-03-10T09:29:02.618Z,58.50
2023-03-10T09:31:34.451Z,62.23
2023-03-10T09:34:02.222Z,62.27
2023-03-10T09:36:30.068Z,61.30
2023-03-10T09:38:58.316Z,62.90
2023-03-10T09:42:05.563Z,60.50
2023-03-10T09:45:33.216Z,59.83
2023-03-10T09:48:34.908Z,66.10
2023-03-10T09:51:16.280Z,63.33
2023-03-10T09:54:11.580Z,67.27
2023-03-10T09:56:39.253Z,65.17
2023-03-10T09:59:22.147Z,62.07
2023-03-10T10:01:51.599Z,61.13
2023-03-10T10:04:38.039Z,63.63
2023-03-10T10:07:15.682Z,61.70
2023-03-10T10:10:09.364Z,61.33
2023-03-10T10:12:36.355Z,63.80
2023-03-10T10:15:19.355Z,63.63
2023-03-10T10:18:18.454Z,63.20
2023-03-10T10:20:51.405Z,61.30
2023-03-10T10:23:33.953Z,63.27
2023-03-10T10:26:20.130Z,61.10
2023-03-10T10:29:07.083Z,63.80
2023-03-10T10:31:36.069Z,65.43
2023-03-10T10:34:22.030Z,64.37
2023-03-10T10:36:55.726Z,64.30
2023-03-10T10:39:39.422Z,63.00
2023-03-10T10:42:29.545Z,64.80
2023-03-10T10:44:59.374Z,64.60
2023-03-10T10:47:32.319Z,63.50
2023-03-10T10:50:18.008Z,63.93
2023-03-10T10:52:50.531Z,63.87
2023-03-10T10:55:34.832Z,63.43
2023-03-10T10:58:06.623Z,63.27
2023-03-10T11:00:38.199Z,65.83
2023-03-10T11:03:36.957Z,64.07
2023-03-10T11:06:29.095Z,63.30
2023-03-10T11:09:10.884Z,71.77
2023-03-10T11:12:08.533Z,64.07
2023-03-10T11:15:03.477Z,62.47
2023-03-10T11:17:53.852Z,61.07
2023-03-10T11:20:45.109Z,63.30
2023-03-10T11:23:30.417Z,64.17
2023-03-10T11:26:10.734Z,63.20
2023-03-10T11:29:16.082Z,64.97
2023-03-10T11:31:45.964Z,62.97
2023-03-10T11:34:30.533Z,62.83
2023-03-10T11:37:52.261Z,62.00
2023-03-10T11:40:50.918Z,61.87
2023-03-10T11:43:31.644Z,61.83
2023-03-10T11:46:04.921Z,61.27
2023-03-10T11:49:08.161Z,61.70
2023-03-10T11:51:43.083Z,66.13
2023-03-10T11:54:21.291Z,60.67
2023-03-10T11:56:50.254Z,65.20
2023-03-10T11:59:33.392Z,61.43
2023-03-10T12:02:20.388Z,60.77
2023-03-10T12:05:07.047Z,60.10
2023-03-10T12:07:40.207Z,57.87
2023-03-10T12:10:13.160Z,59.63
2023-03-10T12:12:44.575Z,60.77
2023-03-10T12:15:36.111Z,58.23
2023-03-10T12:18:07.942Z,57.70
2023-03-10T12:20:36.050Z,59.60
2023-03-10T12:23:27.083Z,57.93
2023-03-10T12:25:54.643Z,58.33
2023-03-10T12:28:29.167Z,59.40
2023-03-10T12:31:29.680Z,58.00
2023-03-10T12:34:18.056Z,149.13
2023-03-10T12:36:47.584Z,76.27
2023-03-10T12:39:43.668Z,56.97
2023-03-10T12:42:34.965Z,60.30
2023-03-10T12:45:21.319Z,63.00
2023-03-10T12:48:01.777Z,61.37
2023-03-10T12:50:35.849Z,65.47
2023-03-10T12:53:51.348Z,74.27
2023-03-10T12:56:43.712Z,60.67
2023-03-10T12:59:35.815Z,59.90
2023-03-10T13:02:05.029Z,64.50
2023-03-10T13:04:32.816Z,65.63
2023-03-10T13:07:03.515Z,58.80
2023-03-10T13:09:38.894Z,58.43
2023-03-10T13:12:33.574Z,61.57
2023-03-10T13:15:01.260Z,62.90
2023-03-10T13:17:32.075Z,60.43
2023-03-10T13:20:19.875Z,61.27
2023-03-10T13:22:58.850Z,59.80
2023-03-10T13:25:26.505Z,59.43
2023-03-10T13:27:55.327Z,62.37
2023-03-10T13:30:26.541Z,60.33
2023-03-10T13:33:02.777Z,62.77
2023-03-10T13:35:39.259Z,60.07
2023-03-10T13:38:18.965Z,63.37
2023-03-10T13:41:02.070Z,61.57
2023-03-10T13:43:43.661Z,61.23
2023-03-10T13:46:18.309Z,60.43
2023-03-10T13:48:47.033Z,59.53
2023-03-10T13:51:26.310Z,60.60
2023-03-10T13:53:55.857Z,58.67
2023-03-10T13:56:28.559Z,60.23
2023-03-10T13:58:58.242Z,58.90
2023-03-10T14:01:29.809Z,59.20
2023-03-10T14:03:59.183Z,57.80
2023-03-10T14:06:28.513Z,59.30
2023-03-10T14:08:56.070Z,59.37
2023-03-10T14:11:44.539Z,59.53
2023-03-10T14:14:13.004Z,59.47
2023-03-10T14:16:58.029Z,61.13
2023-03-10T14:19:42.953Z,57.80
2023-03-10T14:22:38.051Z,58.93
2023-03-10T14:25:18.634Z,59.60
2023-03-10T14:27:57.408Z,59.10
2023-03-10T14:30:30.827Z,57.73
2023-03-10T14:32:59.995Z,57.20
2023-03-10T14:35:29.653Z,56.47
2023-03-10T14:37:56.637Z,59.00
2023-03-10T14:40:25.412Z,58.03
2023-03-10T14:42:54.612Z,58.73
2023-03-10T14:45:34.737Z,58.73
2023-03-10T14:48:13.648Z,63.57
2023-03-10T14:50:40.672Z,62.80
2023-03-10T14:53:13.770Z,67.10
2023-03-10T14:55:42.809Z,59.90
2023-03-10T14:58:17.609Z,58.30
2023-03-10T15:00:44.634Z,62.27
2023-03-10T15:03:13.011Z,59.57
2023-03-10T15:05:48.355Z,58.20
2023-03-10T15:08:17.287Z,59.07
2023-03-10T15:10:48.746Z,59.97
2023-03-10T15:13:18.619Z,58.73
2023-03-10T15:15:47.145Z,58.77
2023-03-10T15:18:18.398Z,72.43
2023-03-10T15:20:45.732Z,59.70
2023-03-10T15:23:16.489Z,57.70
2023-03-10T15:25:45.925Z,62.87
2023-03-10T15:28:13.651Z,60.00
2023-03-10T15:30:40.925Z,60.10
2023-03-10T15:33:07.835Z,62.77
2023-03-10T15:35:35.107Z,63.87
2023-03-10T15:38:02.825Z,61.10
2023-03-10T15:40:32.621Z,65.73
2023-03-10T15:42:59.968Z,65.30
2023-03-10T15:45:29.414Z,67.90
2023-03-10T15:47:57.631Z,74.50
2023-03-10T15:50:24.832Z,70.00
2023-03-10T15:52:58.400Z,76.67
2023-03-10T15:55:27.152Z,71.10
2023-03-10T15:57:56.051Z,79.03
2023-03-10T16:00:26.446Z,75.27
2023-03-10T16:02:53.707Z,78.27
2023-03-10T16:05:21.055Z,71.57
2023-03-10T16:07:48.547Z,64.40
2023-03-10T16:10:19.576Z,63.30
2023-03-10T16:12:46.834Z,65.20
2023-03-10T16:15:17.562Z,65.63
2023-03-10T16:17:45.600Z,65.77
2023-03-10T16:20:13.971Z,62.83
2023-03-10T16:22:42.976Z,62.17
2023-03-10T16:25:18.855Z,59.67
2023-03-10T16:27:46.850Z,57.47
2023-03-10T16:30:16.063Z,59.37
2023-03-10T16:32:50.313Z,62.30
2023-03-10T16:35:18.244Z,63.30
2023-03-10T16:37:45.623Z,59.87
2023-03-10T16:40:13.124Z,58.97
2023-03-10T16:42:43.437Z,60.03
2023-03-10T16:45:10.901Z,61.23
2023-03-10T16:47:38.455Z,60.50
2023-03-10T16:50:05.918Z,62.77
2023-03-10T16:52:42.209Z,63.47
2023-03-10T16:55:17.006Z,63.30
2023-03-10T16:57:47.418Z,68.77
2023-03-10T17:00:15.682Z,68.67
2023-03-10T17:02:43.080Z,66.60
2023-03-10T17:05:11.465Z,64.57
2023-03-10T17:07:53.302Z,68.27
2023-03-10T17:10:22.793Z,66.33
2023-03-10T17:12:49.729Z,65.20
2023-03-10T17:15:17.107Z,66.43
2023-03-10T17:17:44.402Z,69.20
2023-03-10T17:20:12.475Z,68.63
2023-03-10T17:22:39.810Z,67.03
2023-03-10T17:25:07.662Z,66.83
2023-03-10T17:27:35.063Z,69.27
2023-03-10T17:30:02.428Z,69.70
2023-03-10T17:32:30.716Z,73.10
2023-03-10T17:34:57.781Z,72.77
2023-03-10T17:37:25.098Z,76.90
2023-03-10T17:39:52.144Z,76.17
2023-03-10T17:42:19.443Z,73.77
2023-03-10T17:44:46.901Z,76.17
2023-03-10T17:47:13.851Z,76.60
2023-03-10T17:49:41.126Z,98.30
2023-03-10T17:52:08.563Z,79.00
2023-03-10T17:54:35.572Z,76.37
2023-03-10T17:57:02.977Z,83.97
2023-03-10T17:59:31.905Z,84.33
2023-03-10T18:02:00.573Z,79.47
2023-03-10T18:04:29.627Z,82.97
2023-03-10T18:06:56.963Z,83.17
2023-03-10T18:09:24.330Z,81.33
2023-03-10T18:11:51.274Z,83.67
2023-03-10T18:14:18.533Z,84.77
2023-03-10T18:16:45.894Z,86.17
2023-03-10T18:19:13.364Z,85.13
2023-03-10T18:21:40.665Z,85.03
2023-03-10T18:24:10.118Z,84.97
2023-03-10T18:26:38.084Z,83.80
2023-03-10T18:29:05.438Z,85.23
2023-03-10T18:31:34.509Z,85.17
2023-03-10T18:34:02.282Z,85.23
2023-03-10T18:36:30.382Z,83.17
2023-03-10T18:38:58.017Z,86.73
2023-03-10T18:41:30.673Z,84.23
2023-03-10T18:43:59.867Z,90.03
2023-03-10T18:46:27.406Z,86.27
2023-03-10T18:48:56.020Z,87.30
2023-03-10T18:51:26.028Z,84.33
2023-03-10T18:53:53.424Z,85.47
2023-03-10T18:56:20.772Z,84.67
2023-03-10T18:58:48.102Z,87.70
2023-03-10T19:01:15.656Z,87.30
2023-03-10T19:03:43.075Z,91.50
2023-03-10T19:06:10.624Z,91.13
2023-03-10T19:08:38.964Z,84.20
2023-03-10T19:11:07.084Z,81.30
2023-03-10T19:13:35.093Z,80.13
2023-03-10T19:16:09.874Z,78.13
2023-03-10T19:18:36.973Z,79.23
2023-03-10T19:21:04.867Z,77.53
2023-03-10T19:23:33.989Z,77.83
2023-03-10T19:26:01.672Z,74.80
2023-03-10T19:28:28.815Z,74.00
2023-03-10T19:30:56.151Z,75.33
2023-03-10T19:33:23.589Z,73.80
2023-03-10T19:35:51.470Z,77.67
2023-03-10T19:38:18.452Z,74.93
2023-03-10T19:40:46.871Z,76.43
2023-03-10T19:43:14.166Z,77.77
2023-03-10T19:45:41.478Z,75.23
2023-03-10T19:48:08.825Z,74.20
2023-03-10T19:50:36.407Z,75.37
2023-03-10T19:53:03.669Z,74.03
2023-03-10T19:55:30.545Z,77.10
2023-03-10T19:57:57.558Z,80.77
2023-03-10T20:00:30.911Z,86.23
2023-03-10T20:02:58.542Z,89.20
2023-03-10T20:05:26.968Z,83.47
2023-03-10T20:07:54.353Z,86.80
2023-03-10T20:10:21.447Z,93.13
2023-03-10T20:12:51.122Z,96.47
2023-03-10T20:15:18.385Z,86.57
2023-03-10T20:17:45.698Z,81.97
2023-03-10T20:20:15.225Z,76.13
2023-03-10T20:22:45.603Z,78.60
2023-03-10T20:25:18.880Z,79.63
2023-03-10T20:27:47.439Z,80.10
2023-03-10T20:30:27.888Z,79.80
2023-03-10T20:32:57.174Z,80.37
2023-03-10T20:35:26.282Z,79.43
2023-03-10T20:37:53.305Z,75.43
2023-03-10T20:40:23.970Z,80.30
2023-03-10T20:42:52.498Z,77.70
2023-03-10T20:45:20.115Z,77.67
2023-03-10T20:47:48.009Z,77.60
2023-03-10T20:50:16.879Z,75.23
2023-03-10T20:52:44.592Z,78.40
2023-03-10T20:55:21.494Z,77.10
2023-03-10T20:57:49.776Z,75.67
2023-03-10T21:00:20.100Z,76.20
2023-03-10T21:02:49.325Z,77.13
2023-03-10T21:05:16.731Z,77.20
2023-03-10T21:07:44.044Z,81.13
2023-03-10T21:10:13.397Z,82.80
2023-03-10T21:12:43.025Z,86.90
2023-03-10T21:15:14.086Z,82.30
2023-03-10T21:17:41.120Z,83.53
2023-03-10T21:20:09.524Z,85.93
2023-03-10T21:22:38.222Z,81.30
2023-03-10T21:25:08.976Z,84.77
2023-03-10T21:27:36.349Z,85.40
2023-03-10T21:30:09.848Z,86.23
2023-03-10T21:32:37.902Z,89.80
2023-03-10T21:35:05.874Z,88.57
2023-03-10T21:37:33.267Z,88.57
2023-03-10T21:40:00.653Z,85.83
2023-03-10T21:42:27.981Z,85.67
2023-03-10T21:44:55.893Z,84.50
2023-03-10T21:47:22.896Z,86.47
2023-03-10T21:49:50.183Z,85.13
2023-03-10T21:52:18.135Z,87.40
2023-03-10T21:54:45.497Z,84.80
2023-03-10T21:57:12.800Z,85.80
2023-03-10T21:59:40.438Z,84.80
2023-03-10T22:02:08.259Z,85.50
2023-03-10T22:04:35.210Z,85.07
2023-03-10T22:07:02.774Z,84.33
2023-03-10T22:09:31.223Z,79.70
2023-03-10T22:11:58.220Z,81.67
2023-03-10T22:14:25.143Z,79.70
2023-03-10T22:16:52.445Z,76.80
2023-03-10T22:19:20.018Z,75.63
2023-03-10T22:21:47.295Z,77.70
2023-03-10T22:24:14.563Z,75.97
2023-03-10T22:26:42.029Z,74.97
2023-03-10T22:29:08.963Z,75.13
2023-03-10T22:31:36.281Z,73.57
2023-03-10T22:34:03.196Z,74.77
2023-03-10T22:36:30.172Z,75.33
2023-03-10T22:38:57.495Z,78.67
2023-03-10T22:41:25.735Z,75.07
2023-03-10T22:43:53.132Z,72.73
2023-03-10T22:46:20.324Z,71.73
2023-03-10T22:48:47.380Z,74.23
2023-03-10T22:51:18.398Z,69.13
2023-03-10T22:53:49.214Z,67.00
2023-03-10T22:56:16.309Z,66.80
2023-03-10T22:58:43.299Z,65.00
2023-03-10T23:01:10.568Z,66.90
2023-03-10T23:03:37.552Z,65.17
2023-03-10T23:06:06.235Z,66.93
2023-03-10T23:08:35.195Z,65.37
2023-03-10T23:11:02.125Z,65.70
2023-03-10T23:13:29.156Z,64.90
2023-03-10T23:15:56.669Z,65.27
2023-03-10T23:18:23.678Z,65.67
2023-03-10T23:20:52.923Z,67.60
2023-03-10T23:23:19.912Z,65.90
2023-03-10T23:25:50.842Z,66.57
2023-03-10T23:28:19.702Z,66.37
2023-03-10T23:30:48.979Z,65.67
2023-03-10T23:33:19.700Z,66.30
2023-03-10T23:35:50.402Z,66.47
2023-03-10T23:38:17.373Z,66.37
2023-03-10T23:40:44.705Z,66.23
2023-03-10T23:43:12.623Z,66.30
2023-03-10T23:45:40.157Z,65.30
2023-03-10T23:48:12.143Z,65.67
2023-03-10T23:50:42.202Z,65.10
2023-03-10T23:53:12.016Z,67.13
2023-03-10T23:55:44.663Z,65.67
2023-03-10T23:58:14.034Z,66.60
